sensor_id;sensor_type;location;lat;lon;timestamp;pressure;altitude;pressure_sealevel;temperature;humidity
12073;BME280;6098;49.004;8.372;2023-05-22T00:07:04;99911.33;;;18.73;75.09
12073;BME280;6098;49.004;8.372;2023-05-22T00:21:55;99901.67;;;18.60;75.18
12073;BME280;6098;49.004;8.372;2023-05-22T00:36:47;99898.63;;;18.48;75.72
12073;BME280;6098;49.004;8.372;2023-05-22T00:51:39;99907.38;;;18.39;76.07
12073;BME280;6098;49.004;8.372;2023-05-22T01:06:31;99911.54;;;18.15;77.33
12073;BME280;6098;49.004;8.372;2023-05-22T01:36:32;99928.68;;;18.01;76.25
12073;BME280;6098;49.004;8.372;2023-05-22T02:06:28;99948.83;;;17.65;77.42
12073;BME280;6098;49.004;8.372;2023-05-22T02:21:20;99951.91;;;17.60;75.82
12073;BME280;6098;49.004;8.372;2023-05-22T02:36:13;99960.12;;;17.51;76.09
12073;BME280;6098;49.004;8.372;2023-05-22T02:51:05;99954.08;;;17.42;76.99
12073;BME280;6098;49.004;8.372;2023-05-22T03:05:56;99961.38;;;17.40;77.14
12073;BME280;6098;49.004;8.372;2023-05-22T03:20:52;99967.36;;;17.44;77.97
12073;BME280;6098;49.004;8.372;2023-05-22T03:35:44;99962.44;;;17.44;79.79
12073;BME280;6098;49.004;8.372;2023-05-22T03:50:36;99953.17;;;17.43;82.59
12073;BME280;6098;49.004;8.372;2023-05-22T04:05:28;99957.98;;;17.44;84.44
12073;BME280;6098;49.004;8.372;2023-05-22T04:20:22;99965.13;;;17.50;86.72
12073;BME280;6098;49.004;8.372;2023-05-22T04:35:14;99966.10;;;17.61;87.22
12073;BME280;6098;49.004;8.372;2023-05-22T04:50:08;99966.45;;;17.80;86.95
12073;BME280;6098;49.004;8.372;2023-05-22T05:05:00;99978.20;;;17.96;87.24
12073;BME280;6098;49.004;8.372;2023-05-22T05:19:52;99987.00;;;18.15;86.75
12073;BME280;6098;49.004;8.372;2023-05-22T05:34:45;99987.78;;;18.28;85.77
12073;BME280;6098;49.004;8.372;2023-05-22T05:49:39;99990.03;;;18.57;84.69
12073;BME280;6098;49.004;8.372;2023-05-22T06:04:31;100002.16;;;18.90;82.84
12073;BME280;6098;49.004;8.372;2023-05-22T06:19:24;100015.06;;;19.25;81.11
12073;BME280;6098;49.004;8.372;2023-05-22T06:34:17;100014.45;;;19.55;79.86
12073;BME280;6098;49.004;8.372;2023-05-22T06:49:10;100015.55;;;19.79;78.28
12073;BME280;6098;49.004;8.372;2023-05-22T07:04:03;100024.21;;;20.09;76.90
12073;BME280;6098;49.004;8.372;2023-05-22T07:19:03;100033.13;;;20.57;75.68
12073;BME280;6098;49.004;8.372;2023-05-22T07:33:57;100033.54;;;20.99;73.21
12073;BME280;6098;49.004;8.372;2023-05-22T07:48:52;100043.11;;;21.28;70.35
12073;BME280;6098;49.004;8.372;2023-05-22T08:03:44;100049.12;;;21.46;69.25
12073;BME280;6098;49.004;8.372;2023-05-22T08:18:37;100053.87;;;21.83;69.77
12073;BME280;6098;49.004;8.372;2023-05-22T08:33:32;100051.55;;;22.18;68.15
12073;BME280;6098;49.004;8.372;2023-05-22T08:48:25;100042.09;;;22.52;67.43
12073;BME280;6098;49.004;8.372;2023-05-22T09:03:17;100044.87;;;22.80;67.52
12073;BME280;6098;49.004;8.372;2023-05-22T09:18:11;100051.58;;;23.31;65.38
12073;BME280;6098;49.004;8.372;2023-05-22T09:33:07;100046.03;;;23.51;64.58
12073;BME280;6098;49.004;8.372;2023-05-22T09:48:01;100025.48;;;23.58;64.05
12073;BME280;6098;49.004;8.372;2023-05-22T10:02:57;100028.26;;;23.93;62.89
12073;BME280;6098;49.004;8.372;2023-05-22T10:17:52;100015.44;;;24.09;61.93
12073;BME280;6098;49.004;8.372;2023-05-22T10:32:46;100008.34;;;24.34;60.91
12073;BME280;6098;49.004;8.372;2023-05-22T10:47:39;99987.36;;;24.71;60.85
12073;BME280;6098;49.004;8.372;2023-05-22T11:02:36;99978.69;;;25.15;58.15
12073;BME280;6098;49.004;8.372;2023-05-22T11:17:27;99959.21;;;25.57;57.69
12073;BME280;6098;49.004;8.372;2023-05-22T11:32:21;99952.49;;;26.10;53.25
12073;BME280;6098;49.004;8.372;2023-05-22T11:47:15;99937.05;;;26.75;49.42
12073;BME280;6098;49.004;8.372;2023-05-22T12:02:11;99925.64;;;27.26;48.44
12073;BME280;6098;49.004;8.372;2023-05-22T12:17:04;99922.84;;;27.65;45.80
12073;BME280;6098;49.004;8.372;2023-05-22T12:32:00;99918.66;;;28.31;43.80
12073;BME280;6098;49.004;8.372;2023-05-22T12:46:51;99912.31;;;28.57;42.56
12073;BME280;6098;49.004;8.372;2023-05-22T13:01:45;99894.42;;;29.02;38.38
12073;BME280;6098;49.004;8.372;2023-05-22T13:16:39;99884.84;;;29.39;37.91
12073;BME280;6098;49.004;8.372;2023-05-22T13:31:32;99870.55;;;29.72;38.23
12073;BME280;6098;49.004;8.372;2023-05-22T13:46:28;99847.14;;;30.44;38.21
12073;BME280;6098;49.004;8.372;2023-05-22T14:01:21;99846.06;;;30.83;37.63
12073;BME280;6098;49.004;8.372;2023-05-22T14:16:16;99850.27;;;31.40;35.34
12073;BME280;6098;49.004;8.372;2023-05-22T14:31:10;99845.33;;;31.86;35.14
12073;BME280;6098;49.004;8.372;2023-05-22T14:46:05;99852.64;;;32.68;32.41
12073;BME280;6098;49.004;8.372;2023-05-22T15:01:00;99842.59;;;33.16;31.14
12073;BME280;6098;49.004;8.372;2023-05-22T15:15:52;99836.31;;;32.93;31.99
12073;BME280;6098;49.004;8.372;2023-05-22T15:30:41;99847.64;;;30.68;35.96
12073;BME280;6098;49.004;8.372;2023-05-22T15:45:29;99861.82;;;28.76;40.72
12073;BME280;6098;49.004;8.372;2023-05-22T16:00:18;99878.23;;;27.97;43.90
12073;BME280;6098;49.004;8.372;2023-05-22T16:15:10;99897.32;;;27.12;47.41
12073;BME280;6098;49.004;8.372;2023-05-22T16:30:00;99967.66;;;25.33;53.19
12073;BME280;6098;49.004;8.372;2023-05-22T16:44:48;99944.37;;;24.11;53.41
12073;BME280;6098;49.004;8.372;2023-05-22T16:59:40;99942.33;;;23.87;51.10
12073;BME280;6098;49.004;8.372;2023-05-22T17:14:33;99942.10;;;23.88;51.23
12073;BME280;6098;49.004;8.372;2023-05-22T17:29:26;99963.11;;;24.04;52.47
12073;BME280;6098;49.004;8.372;2023-05-22T17:44:18;99960.96;;;24.03;51.91
12073;BME280;6098;49.004;8.372;2023-05-22T17:59:10;99946.66;;;24.02;51.62
12073;BME280;6098;49.004;8.372;2023-05-22T18:14:03;99964.91;;;24.09;51.33
12073;BME280;6098;49.004;8.372;2023-05-22T18:28:56;99974.87;;;24.04;51.29
12073;BME280;6098;49.004;8.372;2023-05-22T18:43:47;99971.64;;;23.60;54.40
12073;BME280;6098;49.004;8.372;2023-05-22T18:58:38;99960.16;;;23.21;54.37
12073;BME280;6098;49.004;8.372;2023-05-22T19:13:30;99984.87;;;22.94;56.57
12073;BME280;6098;49.004;8.372;2023-05-22T19:28:21;100002.98;;;22.80;58.12
12073;BME280;6098;49.004;8.372;2023-05-22T19:43:13;100018.02;;;22.68;58.85
12073;BME280;6098;49.004;8.372;2023-05-22T19:58:05;100045.57;;;22.43;60.89
12073;BME280;6098;49.004;8.372;2023-05-22T20:12:57;100059.44;;;22.25;62.54
12073;BME280;6098;49.004;8.372;2023-05-22T20:27:49;100078.16;;;22.03;63.62
12073;BME280;6098;49.004;8.372;2023-05-22T20:42:41;100113.33;;;21.82;64.37
12073;BME280;6098;49.004;8.372;2023-05-22T20:57:37;100122.61;;;21.64;65.05
12073;BME280;6098;49.004;8.372;2023-05-22T21:12:28;100132.67;;;21.36;66.84
12073;BME280;6098;49.004;8.372;2023-05-22T21:27:24;100131.50;;;21.19;67.34
12073;BME280;6098;49.004;8.372;2023-05-22T21:42:15;100139.26;;;21.02;67.75
12073;BME280;6098;49.004;8.372;2023-05-22T21:57:06;100151.42;;;20.91;68.47
12073;BME280;6098;49.004;8.372;2023-05-22T22:11:59;100161.66;;;20.77;69.57
12073;BME280;6098;49.004;8.372;2023-05-22T22:26:50;100181.27;;;20.83;71.26
12073;BME280;6098;49.004;8.372;2023-05-22T22:41:43;100197.95;;;20.83;72.85
12073;BME280;6098;49.004;8.372;2023-05-22T22:56:37;100196.50;;;20.89;73.26
12073;BME280;6098;49.004;8.372;2023-05-22T23:11:34;100199.22;;;20.84;74.01
12073;BME280;6098;49.004;8.372;2023-05-22T23:26:26;100200.53;;;20.79;74.94
12073;BME280;6098;49.004;8.372;2023-05-22T23:41:18;100204.05;;;20.69;75.86
12073;BME280;6098;49.004;8.372;2023-05-22T23:56:11;100199.02;;;20.54;76.77
